sensor_id;sensor_type;location;lat;lon;timestamp;pressure;altitude;pressure_sealevel;temperature;humidity
69570;BME280;56781;42.292;23.146;2024-02-21T00:01:24;95715.91;;;2.07;72.91
69570;BME280;56781;42.292;23.146;2024-02-21T00:03:54;96053.91;;;4.18;73.26
69570;BME280;56781;42.292;23.146;2024-02-21T00:06:23;95359.97;;;0.03;72.08
69570;BME280;56781;42.292;23.146;2024-02-21T00:08:53;95966.31;;;3.95;72.82
69570;BME280;56781;42.292;23.146;2024-02-21T00:11:21;95736.22;;;2.17;73.31
69570;BME280;56781;42.292;23.146;2024-02-21T00:13:50;95971.59;;;3.60;74.55
69570;BME280;56781;42.292;23.146;2024-02-21T00:16:19;95687.63;;;2.01;73.92
69570;BME280;56781;42.292;23.146;2024-02-21T00:18:48;95683.56;;;1.95;73.28
69570;BME280;56781;42.292;23.146;2024-02-21T00:21:18;95715.28;;;2.26;72.63
69570;BME280;56781;42.292;23.146;2024-02-21T00:23:47;95616.50;;;1.65;73.35
69570;BME280;56781;42.292;23.146;2024-02-21T00:26:17;95771.88;;;2.66;73.52
69570;BME280;56781;42.292;23.146;2024-02-21T00:28:46;96087.56;;;4.81;73.58
69570;BME280;56781;42.292;23.146;2024-02-21T00:31:15;95421.03;;;0.43;72.97
69570;BME280;56781;42.292;23.146;2024-02-21T00:33:43;95996.09;;;3.95;74.14
69570;BME280;56781;42.292;23.146;2024-02-21T00:36:12;95432.25;;;0.45;74.69
69570;BME280;56781;42.292;23.146;2024-02-21T00:38:43;95937.94;;;3.89;74.50
69570;BME280;56781;42.292;23.146;2024-02-21T00:41:12;95272.34;;;-0.63;73.73
69570;BME280;56781;42.292;23.146;2024-02-21T00:43:41;95979.50;;;3.96;75.41
69570;BME280;56781;42.292;23.146;2024-02-21T00:46:10;95310.63;;;-0.54;75.71
69570;BME280;56781;42.292;23.146;2024-02-21T00:48:38;95976.19;;;4.03;75.69
69570;BME280;56781;42.292;23.146;2024-02-21T00:51:07;96089.91;;;4.66;76.06
69570;BME280;56781;42.292;23.146;2024-02-21T00:53:36;95793.34;;;2.47;76.59
69570;BME280;56781;42.292;23.146;2024-02-21T00:56:07;95973.13;;;3.73;76.66
69570;BME280;56781;42.292;23.146;2024-02-21T00:58:36;95508.88;;;0.76;76.23
69570;BME280;56781;42.292;23.146;2024-02-21T01:01:04;95657.44;;;1.55;76.87
69570;BME280;56781;42.292;23.146;2024-02-21T01:03:33;96020.78;;;3.77;77.15
69570;BME280;56781;42.292;23.146;2024-02-21T01:06:02;95563.75;;;0.59;78.41
69570;BME280;56781;42.292;23.146;2024-02-21T01:08:30;95492.72;;;0.23;78.04
69570;BME280;56781;42.292;23.146;2024-02-21T01:10:59;95967.63;;;3.69;76.49
69570;BME280;56781;42.292;23.146;2024-02-21T01:13:29;95810.22;;;2.44;76.90
69570;BME280;56781;42.292;23.146;2024-02-21T01:15:58;96081.78;;;4.35;77.20
69570;BME280;56781;42.292;23.146;2024-02-21T01:18:27;96075.94;;;4.33;77.23
69570;BME280;56781;42.292;23.146;2024-02-21T01:20:55;95745.03;;;2.02;77.42
69570;BME280;56781;42.292;23.146;2024-02-21T01:23:24;96084.41;;;4.47;76.95
69570;BME280;56781;42.292;23.146;2024-02-21T01:25:52;95966.47;;;3.70;77.01
69570;BME280;56781;42.292;23.146;2024-02-21T01:28:22;95416.75;;;0.14;76.76
69570;BME280;56781;42.292;23.146;2024-02-21T01:30:52;95492.22;;;0.58;77.34
69570;BME280;56781;42.292;23.146;2024-02-21T01:33:21;95396.47;;;-0.08;77.22
69570;BME280;56781;42.292;23.146;2024-02-21T01:35:50;96058.00;;;4.12;79.05
69570;BME280;56781;42.292;23.146;2024-02-21T01:38:19;95832.41;;;2.65;78.62
69570;BME280;56781;42.292;23.146;2024-02-21T01:40:48;95998.38;;;3.49;79.39
69570;BME280;56781;42.292;23.146;2024-02-21T01:43:18;95964.97;;;3.13;79.50
69570;BME280;56781;42.292;23.146;2024-02-21T01:45:49;95182.94;;;-1.86;78.91
69570;BME280;56781;42.292;23.146;2024-02-21T01:48:21;96048.56;;;4.06;79.29
69570;BME280;56781;42.292;23.146;2024-02-21T01:50:51;95907.53;;;3.04;79.61
69570;BME280;56781;42.292;23.146;2024-02-21T01:53:22;95568.78;;;0.85;78.29
69570;BME280;56781;42.292;23.146;2024-02-21T01:55:51;95637.44;;;1.44;77.75
69570;BME280;56781;42.292;23.146;2024-02-21T01:58:21;95616.63;;;1.16;78.17
69570;BME280;56781;42.292;23.146;2024-02-21T02:00:50;95403.06;;;-0.06;77.77
69570;BME280;56781;42.292;23.146;2024-02-21T02:03:20;96087.91;;;4.16;77.50
69570;BME280;56781;42.292;23.146;2024-02-21T02:05:50;96042.66;;;4.16;77.57
69570;BME280;56781;42.292;23.146;2024-02-21T02:08:19;95801.59;;;2.66;76.60
69570;BME280;56781;42.292;23.146;2024-02-21T02:10:49;96073.28;;;4.20;78.37
69570;BME280;56781;42.292;23.146;2024-02-21T02:13:18;95796.88;;;2.63;77.81
69570;BME280;56781;42.292;23.146;2024-02-21T02:15:48;95955.13;;;3.65;76.96
69570;BME280;56781;42.292;23.146;2024-02-21T02:18:19;95677.03;;;1.68;77.04
69570;BME280;56781;42.292;23.146;2024-02-21T02:20:50;95336.72;;;-0.67;77.59
69570;BME280;56781;42.292;23.146;2024-02-21T02:23:30;96043.16;;;4.06;77.78
69570;BME280;56781;42.292;23.146;2024-02-21T02:25:59;95525.78;;;0.36;77.88
69570;BME280;56781;42.292;23.146;2024-02-21T02:28:29;95457.41;;;0.12;78.10
69570;BME280;56781;42.292;23.146;2024-02-21T02:30:57;96030.66;;;4.02;78.52
69570;BME280;56781;42.292;23.146;2024-02-21T02:33:43;95264.41;;;-1.21;78.40
69570;BME280;56781;42.292;23.146;2024-02-21T02:36:29;95664.47;;;1.60;78.50
69570;BME280;56781;42.292;23.146;2024-02-21T02:39:17;95921.63;;;3.25;79.55
69570;BME280;56781;42.292;23.146;2024-02-21T02:42:02;95640.50;;;1.30;80.07
69570;BME280;56781;42.292;23.146;2024-02-21T02:44:48;95366.47;;;-0.47;79.87
69570;BME280;56781;42.292;23.146;2024-02-21T02:47:34;96061.03;;;3.95;79.39
69570;BME280;56781;42.292;23.146;2024-02-21T02:50:03;96036.34;;;4.12;79.77
69570;BME280;56781;42.292;23.146;2024-02-21T02:52:32;96020.91;;;4.13;79.08
69570;BME280;56781;42.292;23.146;2024-02-21T02:55:03;95908.75;;;3.35;78.54
69570;BME280;56781;42.292;23.146;2024-02-21T02:57:32;95712.38;;;1.91;78.74
69570;BME280;56781;42.292;23.146;2024-02-21T03:00:01;95351.03;;;-0.26;79.03
69570;BME280;56781;42.292;23.146;2024-02-21T03:02:31;95284.34;;;-0.85;78.86
69570;BME280;56781;42.292;23.146;2024-02-21T03:04:59;95673.41;;;1.76;78.16
69570;BME280;56781;42.292;23.146;2024-02-21T03:07:28;95575.38;;;1.40;78.07
69570;BME280;56781;42.292;23.146;2024-02-21T03:09:57;95838.69;;;2.98;78.25
69570;BME280;56781;42.292;23.146;2024-02-21T03:12:27;95363.69;;;-0.26;78.49
69570;BME280;56781;42.292;23.146;2024-02-21T03:14:56;96065.28;;;4.24;78.54
69570;BME280;56781;42.292;23.146;2024-02-21T03:17:25;95644.69;;;1.68;76.83
69570;BME280;56781;42.292;23.146;2024-02-21T03:19:55;95345.41;;;-0.33;76.78
69570;BME280;56781;42.292;23.146;2024-02-21T03:22:24;95712.22;;;1.59;76.70
69570;BME280;56781;42.292;23.146;2024-02-21T03:24:53;95734.88;;;1.83;76.38
69570;BME280;56781;42.292;23.146;2024-02-21T03:27:22;95964.16;;;3.41;76.70
69570;BME280;56781;42.292;23.146;2024-02-21T03:29:52;95538.16;;;0.77;76.71
69570;BME280;56781;42.292;23.146;2024-02-21T03:32:21;96044.91;;;4.14;75.65
69570;BME280;56781;42.292;23.146;2024-02-21T03:34:49;95476.22;;;0.37;76.16
69570;BME280;56781;42.292;23.146;2024-02-21T03:37:18;95911.63;;;3.26;76.56
69570;BME280;56781;42.292;23.146;2024-02-21T03:39:47;96041.59;;;4.05;76.13
69570;BME280;56781;42.292;23.146;2024-02-21T03:42:15;95963.91;;;3.46;75.89
69570;BME280;56781;42.292;23.146;2024-02-21T03:44:44;96047.63;;;4.14;75.64
69570;BME280;56781;42.292;23.146;2024-02-21T03:47:14;96069.41;;;3.90;77.06
69570;BME280;56781;42.292;23.146;2024-02-21T03:49:42;96051.50;;;3.69;78.57
69570;BME280;56781;42.292;23.146;2024-02-21T03:52:11;96075.91;;;3.73;77.77
69570;BME280;56781;42.292;23.146;2024-02-21T03:54:40;95952.19;;;3.26;77.33
69570;BME280;56781;42.292;23.146;2024-02-21T03:57:09;95940.81;;;3.20;76.56
69570;BME280;56781;42.292;23.146;2024-02-21T03:59:37;96079.03;;;4.03;76.54
69570;BME280;56781;42.292;23.146;2024-02-21T04:02:10;95454.97;;;-0.05;76.12
69570;BME280;56781;42.292;23.146;2024-02-21T04:04:44;95942.66;;;3.16;77.05
69570;BME280;56781;42.292;23.146;2024-02-21T04:07:15;95712.84;;;1.28;77.28
69570;BME280;56781;42.292;23.146;2024-02-21T04:09:43;95410.38;;;-0.31;76.28
69570;BME280;56781;42.292;23.146;2024-02-21T04:12:12;95979.00;;;3.47;77.09
69570;BME280;56781;42.292;23.146;2024-02-21T04:14:41;95243.38;;;-1.31;76.13
69570;BME280;56781;42.292;23.146;2024-02-21T04:17:13;95341.41;;;-0.76;76.45
69570;BME280;56781;42.292;23.146;2024-02-21T04:19:43;95722.00;;;1.64;77.02
69570;BME280;56781;42.292;23.146;2024-02-21T04:22:12;96077.78;;;3.85;77.36
69570;BME280;56781;42.292;23.146;2024-02-21T04:24:41;95650.03;;;0.87;77.73
69570;BME280;56781;42.292;23.146;2024-02-21T04:27:10;96043.50;;;3.89;77.20
69570;BME280;56781;42.292;23.146;2024-02-21T04:29:38;95647.91;;;1.45;76.70
69570;BME280;56781;42.292;23.146;2024-02-21T04:32:07;95939.75;;;3.37;76.82
69570;BME280;56781;42.292;23.146;2024-02-21T04:34:37;95669.16;;;1.35;77.56
69570;BME280;56781;42.292;23.146;2024-02-21T04:37:07;96061.50;;;3.97;78.09
69570;BME280;56781;42.292;23.146;2024-02-21T04:39:36;96093.75;;;3.90;78.30
69570;BME280;56781;42.292;23.146;2024-02-21T04:42:05;96096.28;;;3.83;78.99
69570;BME280;56781;42.292;23.146;2024-02-21T04:44:34;95316.31;;;-1.04;78.87
69570;BME280;56781;42.292;23.146;2024-02-21T04:47:02;96068.00;;;3.96;77.58
69570;BME280;56781;42.292;23.146;2024-02-21T04:49:31;96060.72;;;3.96;77.98
69570;BME280;56781;42.292;23.146;2024-02-21T04:52:00;95417.53;;;-0.23;77.35
69570;BME280;56781;42.292;23.146;2024-02-21T04:54:30;96056.09;;;3.69;78.05
69570;BME280;56781;42.292;23.146;2024-02-21T04:56:58;95363.53;;;-0.79;77.45
69570;BME280;56781;42.292;23.146;2024-02-21T04:59:27;95574.09;;;0.44;77.91
69570;BME280;56781;42.292;23.146;2024-02-21T05:01:56;95853.88;;;2.46;78.46
69570;BME280;56781;42.292;23.146;2024-02-21T05:04:26;96055.28;;;3.96;77.56
69570;BME280;56781;42.292;23.146;2024-02-21T05:06:54;96063.94;;;4.02;77.41
69570;BME280;56781;42.292;23.146;2024-02-21T05:09:23;95964.47;;;3.23;77.57
69570;BME280;56781;42.292;23.146;2024-02-21T05:11:53;95243.56;;;-1.48;77.17
69570;BME280;56781;42.292;23.146;2024-02-21T05:14:22;95579.56;;;0.48;77.72
69570;BME280;56781;42.292;23.146;2024-02-21T05:16:51;95322.69;;;-0.97;77.67
69570;BME280;56781;42.292;23.146;2024-02-21T05:19:20;95946.59;;;3.06;77.94
69570;BME280;56781;42.292;23.146;2024-02-21T05:21:48;96066.50;;;3.83;78.29
69570;BME280;56781;42.292;23.146;2024-02-21T05:24:17;96118.19;;;3.77;78.82
69570;BME280;56781;42.292;23.146;2024-02-21T05:26:46;95944.50;;;3.00;77.66
69570;BME280;56781;42.292;23.146;2024-02-21T05:29:16;95944.50;;;3.00;78.17
69570;BME280;56781;42.292;23.146;2024-02-21T05:31:56;95388.31;;;-0.73;78.49
69570;BME280;56781;42.292;23.146;2024-02-21T05:34:25;96090.69;;;3.75;77.72
69570;BME280;56781;42.292;23.146;2024-02-21T05:36:54;96074.78;;;3.74;77.50
69570;BME280;56781;42.292;23.146;2024-02-21T05:39:24;96071.09;;;3.66;78.54
69570;BME280;56781;42.292;23.146;2024-02-21T05:41:53;95958.72;;;2.84;79.65
69570;BME280;56781;42.292;23.146;2024-02-21T05:44:23;95581.25;;;0.28;79.98
69570;BME280;56781;42.292;23.146;2024-02-21T05:46:54;96067.50;;;3.62;80.96
69570;BME280;56781;42.292;23.146;2024-02-21T05:49:22;95959.09;;;2.83;80.83
69570;BME280;56781;42.292;23.146;2024-02-21T05:51:51;95401.94;;;-0.78;80.25
69570;BME280;56781;42.292;23.146;2024-02-21T05:54:20;95848.91;;;2.08;80.22
69570;BME280;56781;42.292;23.146;2024-02-21T05:56:49;95587.09;;;0.42;79.97
69570;BME280;56781;42.292;23.146;2024-02-21T05:59:18;96001.03;;;2.93;79.58
69570;BME280;56781;42.292;23.146;2024-02-21T06:01:56;95499.44;;;-0.08;78.61
69570;BME280;56781;42.292;23.146;2024-02-21T06:04:26;95164.13;;;-2.11;77.37
69570;BME280;56781;42.292;23.146;2024-02-21T06:06:55;95893.16;;;2.31;78.51
69570;BME280;56781;42.292;23.146;2024-02-21T06:09:24;95976.16;;;3.27;78.29
69570;BME280;56781;42.292;23.146;2024-02-21T06:11:52;95992.97;;;3.49;77.12
69570;BME280;56781;42.292;23.146;2024-02-21T06:14:21;95523.41;;;0.34;76.23
69570;BME280;56781;42.292;23.146;2024-02-21T06:16:50;95474.13;;;-0.19;76.75
69570;BME280;56781;42.292;23.146;2024-02-21T06:19:20;96014.00;;;3.27;78.29
69570;BME280;56781;42.292;23.146;2024-02-21T06:21:49;95524.66;;;0.25;77.41
69570;BME280;56781;42.292;23.146;2024-02-21T06:24:17;95729.84;;;1.69;76.79
69570;BME280;56781;42.292;23.146;2024-02-21T06:26:46;95755.16;;;2.05;76.06
69570;BME280;56781;42.292;23.146;2024-02-21T06:29:15;96139.38;;;4.63;75.48
69570;BME280;56781;42.292;23.146;2024-02-21T06:31:43;95799.47;;;2.32;74.51
69570;BME280;56781;42.292;23.146;2024-02-21T06:34:12;95735.78;;;2.15;74.92
69570;BME280;56781;42.292;23.146;2024-02-21T06:36:44;95849.13;;;2.83;74.67
69570;BME280;56781;42.292;23.146;2024-02-21T06:39:13;95773.03;;;2.37;75.20
69570;BME280;56781;42.292;23.146;2024-02-21T06:41:42;95941.22;;;3.35;74.89
69570;BME280;56781;42.292;23.146;2024-02-21T06:44:11;96056.97;;;4.64;73.59
69570;BME280;56781;42.292;23.146;2024-02-21T06:46:39;95949.47;;;3.70;73.93
69570;BME280;56781;42.292;23.146;2024-02-21T06:49:08;95818.94;;;2.81;73.78
69570;BME280;56781;42.292;23.146;2024-02-21T06:51:44;95663.75;;;1.75;74.67
69570;BME280;56781;42.292;23.146;2024-02-21T06:54:13;95504.41;;;1.08;73.35
69570;BME280;56781;42.292;23.146;2024-02-21T06:56:41;95564.09;;;1.50;73.84
69570;BME280;56781;42.292;23.146;2024-02-21T06:59:10;96049.50;;;4.77;74.03
69570;BME280;56781;42.292;23.146;2024-02-21T07:01:45;96136.94;;;5.41;74.35
69570;BME280;56781;42.292;23.146;2024-02-21T07:04:14;95500.06;;;1.03;74.48
69570;BME280;56781;42.292;23.146;2024-02-21T07:06:45;96146.59;;;5.58;74.01
69570;BME280;56781;42.292;23.146;2024-02-21T07:09:13;96025.09;;;4.93;72.73
69570;BME280;56781;42.292;23.146;2024-02-21T07:11:42;95510.91;;;1.79;71.66
69570;BME280;56781;42.292;23.146;2024-02-21T07:14:11;96149.28;;;5.93;72.27
69570;BME280;56781;42.292;23.146;2024-02-21T07:16:39;96161.59;;;6.07;70.78
69570;BME280;56781;42.292;23.146;2024-02-21T07:19:08;95751.47;;;3.64;70.71
69570;BME280;56781;42.292;23.146;2024-02-21T07:21:37;96136.25;;;6.41;70.61
69570;BME280;56781;42.292;23.146;2024-02-21T07:24:10;96145.03;;;6.77;69.18
69570;BME280;56781;42.292;23.146;2024-02-21T07:26:41;95715.06;;;3.97;69.88
69570;BME280;56781;42.292;23.146;2024-02-21T07:29:10;95766.44;;;4.32;69.69
69570;BME280;56781;42.292;23.146;2024-02-21T07:31:40;96054.59;;;6.34;68.59
69570;BME280;56781;42.292;23.146;2024-02-21T07:34:09;96170.38;;;7.08;68.63
69570;BME280;56781;42.292;23.146;2024-02-21T07:36:38;95814.66;;;4.85;68.66
69570;BME280;56781;42.292;23.146;2024-02-21T07:39:08;95469.16;;;2.72;69.72
69570;BME280;56781;42.292;23.146;2024-02-21T07:41:37;95892.91;;;5.48;68.96
69570;BME280;56781;42.292;23.146;2024-02-21T07:44:06;95418.38;;;2.42;67.65
69570;BME280;56781;42.292;23.146;2024-02-21T07:46:34;96147.53;;;7.13;67.51
69570;BME280;56781;42.292;23.146;2024-02-21T07:49:03;95815.72;;;5.00;65.72
69570;BME280;56781;42.292;23.146;2024-02-21T07:51:32;96105.09;;;6.81;63.54
69570;BME280;56781;42.292;23.146;2024-02-21T07:54:00;95423.84;;;2.65;59.92
69570;BME280;56781;42.292;23.146;2024-02-21T07:56:31;95699.91;;;4.54;58.79
69570;BME280;56781;42.292;23.146;2024-02-21T07:59:00;95481.94;;;3.33;59.14
69570;BME280;56781;42.292;23.146;2024-02-21T08:01:29;96012.78;;;6.92;58.12
69570;BME280;56781;42.292;23.146;2024-02-21T08:03:57;95629.97;;;4.17;58.10
69570;BME280;56781;42.292;23.146;2024-02-21T08:06:26;95519.66;;;3.45;58.87
69570;BME280;56781;42.292;23.146;2024-02-21T08:08:55;95642.44;;;3.99;58.40
69570;BME280;56781;42.292;23.146;2024-02-21T08:11:24;95519.56;;;3.42;59.20
69570;BME280;56781;42.292;23.146;2024-02-21T08:13:55;95800.41;;;5.34;59.22
69570;BME280;56781;42.292;23.146;2024-02-21T08:16:24;95941.19;;;6.05;59.02
69570;BME280;56781;42.292;23.146;2024-02-21T08:18:53;96064.59;;;7.29;57.85
69570;BME280;56781;42.292;23.146;2024-02-21T08:21:21;95505.47;;;3.52;57.54
69570;BME280;56781;42.292;23.146;2024-02-21T08:23:50;95802.03;;;5.62;56.22
69570;BME280;56781;42.292;23.146;2024-02-21T08:26:20;96145.38;;;8.12;56.07
69570;BME280;56781;42.292;23.146;2024-02-21T08:28:48;96155.63;;;8.23;54.92
69570;BME280;56781;42.292;23.146;2024-02-21T08:31:22;96137.97;;;8.47;54.32
69570;BME280;56781;42.292;23.146;2024-02-21T08:33:51;95877.66;;;6.66;54.02
69570;BME280;56781;42.292;23.146;2024-02-21T08:36:20;95416.00;;;3.61;54.18
69570;BME280;56781;42.292;23.146;2024-02-21T08:38:48;95544.63;;;4.24;54.89
69570;BME280;56781;42.292;23.146;2024-02-21T08:41:17;95830.06;;;6.19;55.87
69570;BME280;56781;42.292;23.146;2024-02-21T08:43:45;95909.53;;;6.69;55.71
69570;BME280;56781;42.292;23.146;2024-02-21T08:46:14;95776.41;;;5.86;55.63
69570;BME280;56781;42.292;23.146;2024-02-21T08:48:44;96085.34;;;8.05;56.64
69570;BME280;56781;42.292;23.146;2024-02-21T08:51:14;95677.84;;;5.25;54.55
69570;BME280;56781;42.292;23.146;2024-02-21T08:53:43;96153.06;;;8.37;54.79
69570;BME280;56781;42.292;23.146;2024-02-21T08:56:12;96022.28;;;7.66;55.34
69570;BME280;56781;42.292;23.146;2024-02-21T08:58:40;95467.00;;;4.05;55.28
69570;BME280;56781;42.292;23.146;2024-02-21T09:01:09;96028.25;;;8.19;55.51
69570;BME280;56781;42.292;23.146;2024-02-21T09:03:38;95762.19;;;6.90;54.40
69570;BME280;56781;42.292;23.146;2024-02-21T09:06:12;95442.13;;;4.49;54.25
69570;BME280;56781;42.292;23.146;2024-02-21T09:08:41;95739.69;;;6.22;54.90
69570;BME280;56781;42.292;23.146;2024-02-21T09:11:09;95494.22;;;4.42;53.82
69570;BME280;56781;42.292;23.146;2024-02-21T09:13:38;95709.16;;;6.02;53.22
69570;BME280;56781;42.292;23.146;2024-02-21T09:16:07;96125.06;;;8.81;53.00
69570;BME280;56781;42.292;23.146;2024-02-21T09:18:36;96123.66;;;8.53;54.31
69570;BME280;56781;42.292;23.146;2024-02-21T09:21:05;95515.72;;;4.54;54.28
69570;BME280;56781;42.292;23.146;2024-02-21T09:23:35;95555.31;;;4.89;54.19
69570;BME280;56781;42.292;23.146;2024-02-21T09:26:04;95429.25;;;4.15;52.31
69570;BME280;56781;42.292;23.146;2024-02-21T09:28:32;96121.56;;;9.36;52.24
69570;BME280;56781;42.292;23.146;2024-02-21T09:31:01;96152.63;;;9.72;51.08
69570;BME280;56781;42.292;23.146;2024-02-21T09:33:30;96123.81;;;9.85;51.13
69570;BME280;56781;42.292;23.146;2024-02-21T09:35:59;95743.16;;;7.35;50.90
69570;BME280;56781;42.292;23.146;2024-02-21T09:38:27;95561.22;;;6.26;50.25
69570;BME280;56781;42.292;23.146;2024-02-21T09:40:59;96015.41;;;9.20;48.71
69570;BME280;56781;42.292;23.146;2024-02-21T09:43:29;96127.69;;;9.84;49.79
69570;BME280;56781;42.292;23.146;2024-02-21T09:45:58;95449.06;;;5.40;49.54
69570;BME280;56781;42.292;23.146;2024-02-21T09:48:38;95821.91;;;8.09;49.75
69570;BME280;56781;42.292;23.146;2024-02-21T09:51:10;96014.13;;;9.90;47.99
69570;BME280;56781;42.292;23.146;2024-02-21T09:53:40;95501.56;;;6.40;48.33
69570;BME280;56781;42.292;23.146;2024-02-21T09:56:26;95481.91;;;6.06;47.55
69570;BME280;56781;42.292;23.146;2024-02-21T09:58:55;95525.50;;;6.24;46.74
69570;BME280;56781;42.292;23.146;2024-02-21T10:01:24;95457.78;;;5.97;47.51
69570;BME280;56781;42.292;23.146;2024-02-21T10:04:01;95854.88;;;8.52;47.77
69570;BME280;56781;42.292;23.146;2024-02-21T10:06:32;95791.84;;;7.98;47.52
69570;BME280;56781;42.292;23.146;2024-02-21T10:09:00;95500.78;;;6.40;45.47
69570;BME280;56781;42.292;23.146;2024-02-21T10:11:31;96112.69;;;10.44;47.07
69570;BME280;56781;42.292;23.146;2024-02-21T10:14:04;95680.03;;;7.73;44.15
69570;BME280;56781;42.292;23.146;2024-02-21T10:16:34;95911.75;;;9.34;42.69
69570;BME280;56781;42.292;23.146;2024-02-21T10:19:04;95750.88;;;8.50;44.61
69570;BME280;56781;42.292;23.146;2024-02-21T10:21:33;95603.97;;;7.32;45.93
69570;BME280;56781;42.292;23.146;2024-02-21T10:24:02;95975.81;;;9.62;46.44
69570;BME280;56781;42.292;23.146;2024-02-21T10:26:32;96076.63;;;10.03;45.35
69570;BME280;56781;42.292;23.146;2024-02-21T10:29:01;95721.75;;;7.92;46.08
69570;BME280;56781;42.292;23.146;2024-02-21T10:31:30;95680.47;;;7.83;46.22
69570;BME280;56781;42.292;23.146;2024-02-21T10:33:59;96071.31;;;10.92;46.26
69570;BME280;56781;42.292;23.146;2024-02-21T10:36:30;95727.63;;;8.85;44.61
69570;BME280;56781;42.292;23.146;2024-02-21T10:38:58;95565.25;;;7.64;44.86
69570;BME280;56781;42.292;23.146;2024-02-21T10:41:28;95961.91;;;10.35;45.57
69570;BME280;56781;42.292;23.146;2024-02-21T10:44:00;96061.53;;;10.66;45.20
69570;BME280;56781;42.292;23.146;2024-02-21T10:46:34;95641.59;;;7.89;46.42
69570;BME280;56781;42.292;23.146;2024-02-21T10:49:10;95445.69;;;7.09;46.31
69570;BME280;56781;42.292;23.146;2024-02-21T10:51:43;96053.66;;;11.36;43.48
69570;BME280;56781;42.292;23.146;2024-02-21T10:54:21;95683.78;;;8.24;45.71
69570;BME280;56781;42.292;23.146;2024-02-21T10:56:55;96036.88;;;11.09;44.24
69570;BME280;56781;42.292;23.146;2024-02-21T10:59:26;96033.78;;;10.82;46.33
69570;BME280;56781;42.292;23.146;2024-02-21T11:01:57;95972.41;;;10.79;44.40
69570;BME280;56781;42.292;23.146;2024-02-21T11:04:26;96027.44;;;11.39;43.88
69570;BME280;56781;42.292;23.146;2024-02-21T11:06:58;96041.91;;;11.39;44.10
69570;BME280;56781;42.292;23.146;2024-02-21T11:09:31;95442.31;;;7.51;43.64
69570;BME280;56781;42.292;23.146;2024-02-21T11:12:02;95689.38;;;8.71;43.63
69570;BME280;56781;42.292;23.146;2024-02-21T11:14:33;95968.88;;;10.97;42.48
69570;BME280;56781;42.292;23.146;2024-02-21T11:17:14;95789.28;;;9.40;43.66
69570;BME280;56781;42.292;23.146;2024-02-21T11:19:43;95718.66;;;9.17;45.13
69570;BME280;56781;42.292;23.146;2024-02-21T11:22:15;95712.06;;;9.39;44.24
69570;BME280;56781;42.292;23.146;2024-02-21T11:24:45;95902.06;;;10.73;44.53
69570;BME280;56781;42.292;23.146;2024-02-21T11:27:14;95705.78;;;9.60;43.24
69570;BME280;56781;42.292;23.146;2024-02-21T11:29:46;95697.63;;;9.46;41.49
69570;BME280;56781;42.292;23.146;2024-02-21T11:32:16;95624.34;;;8.80;42.26
69570;BME280;56781;42.292;23.146;2024-02-21T11:34:57;95598.22;;;8.61;44.32
69570;BME280;56781;42.292;23.146;2024-02-21T11:37:30;95989.09;;;11.31;43.47
69570;BME280;56781;42.292;23.146;2024-02-21T11:40:01;95494.50;;;7.78;43.77
69570;BME280;56781;42.292;23.146;2024-02-21T11:42:30;95582.63;;;8.51;42.68
69570;BME280;56781;42.292;23.146;2024-02-21T11:45:00;95909.06;;;10.84;44.01
69570;BME280;56781;42.292;23.146;2024-02-21T11:47:29;95675.78;;;9.17;44.34
69570;BME280;56781;42.292;23.146;2024-02-21T11:49:58;95868.91;;;10.46;43.50
69570;BME280;56781;42.292;23.146;2024-02-21T11:55:06;95179.81;;;5.50;43.67
69570;BME280;56781;42.292;23.146;2024-02-21T11:57:37;95340.84;;;6.28;43.62
69570;BME280;56781;42.292;23.146;2024-02-21T12:00:15;95670.25;;;8.42;45.63
69570;BME280;56781;42.292;23.146;2024-02-21T12:02:44;95367.88;;;6.86;45.11
69570;BME280;56781;42.292;23.146;2024-02-21T12:05:13;95574.75;;;8.13;45.86
69570;BME280;56781;42.292;23.146;2024-02-21T12:07:42;95731.50;;;8.91;44.78
69570;BME280;56781;42.292;23.146;2024-02-21T12:10:13;95285.97;;;6.01;45.11
69570;BME280;56781;42.292;23.146;2024-02-21T12:12:42;95965.81;;;10.59;44.61
69570;BME280;56781;42.292;23.146;2024-02-21T12:15:12;95596.94;;;8.12;44.35
69570;BME280;56781;42.292;23.146;2024-02-21T12:17:40;95898.22;;;10.27;44.83
69570;BME280;56781;42.292;23.146;2024-02-21T12:20:09;95722.97;;;9.10;45.73
69570;BME280;56781;42.292;23.146;2024-02-21T12:22:41;95867.34;;;10.09;44.50
69570;BME280;56781;42.292;23.146;2024-02-21T12:25:27;95637.94;;;8.65;45.14
69570;BME280;56781;42.292;23.146;2024-02-21T12:27:56;95552.56;;;8.08;44.15
69570;BME280;56781;42.292;23.146;2024-02-21T12:30:27;95552.88;;;7.92;46.04
69570;BME280;56781;42.292;23.146;2024-02-21T12:32:57;95959.13;;;10.71;44.70
69570;BME280;56781;42.292;23.146;2024-02-21T12:35:26;95347.38;;;7.07;44.05
69570;BME280;56781;42.292;23.146;2024-02-21T12:37:55;95655.91;;;8.95;44.05
69570;BME280;56781;42.292;23.146;2024-02-21T12:40:23;95829.44;;;10.25;42.92
69570;BME280;56781;42.292;23.146;2024-02-21T12:42:53;95923.13;;;10.90;43.79
69570;BME280;56781;42.292;23.146;2024-02-21T12:45:22;95569.41;;;8.63;42.86
69570;BME280;56781;42.292;23.146;2024-02-21T12:47:50;95887.19;;;10.74;42.84
69570;BME280;56781;42.292;23.146;2024-02-21T12:50:19;95541.34;;;8.67;45.11
69570;BME280;56781;42.292;23.146;2024-02-21T12:52:49;95916.38;;;11.20;43.88
69570;BME280;56781;42.292;23.146;2024-02-21T12:55:18;95771.28;;;10.32;43.19
69570;BME280;56781;42.292;23.146;2024-02-21T12:57:47;95814.13;;;10.63;41.08
69570;BME280;56781;42.292;23.146;2024-02-21T13:00:17;95917.06;;;11.42;41.28
69570;BME280;56781;42.292;23.146;2024-02-21T13:02:47;95832.50;;;10.70;40.61
69570;BME280;56781;42.292;23.146;2024-02-21T13:05:16;95576.41;;;8.93;37.51
69570;BME280;56781;42.292;23.146;2024-02-21T13:07:45;95921.81;;;11.30;37.59
69570;BME280;56781;42.292;23.146;2024-02-21T13:10:13;95755.22;;;10.41;38.90
69570;BME280;56781;42.292;23.146;2024-02-21T13:12:42;95294.16;;;7.24;40.50
69570;BME280;56781;42.292;23.146;2024-02-21T13:15:11;95890.88;;;11.34;39.76